Flight Track Log - Related Links

Times and Time Zones

All times are in EDT time to prevent confusion due to time zone crossing. See the TCF3467 flight status page for this flight to view local times or setup timezone preferences in your user account.


Time Position Orientation Groundspeed Altitude Reporting Facility
EDT Latitude Longitude Course Direction KTS MPH feet Rate Location/Type
Thu 08:58:34 AM 40.0039 -82.9131 274° West 169 194 1,300  Level Indianapolis Center
Thu 08:59:47 AM 40.0083 -82.9983 274° West 210 242 3,200 1,326 Climbing Indianapolis Center
Thu 09:00:09 AM 40.0125 -83.0294 280° West 230 265 3,400 2,357 Climbing Indianapolis Center
Thu 09:01:11 AM 40.0217 -83.1203 278° West 244 281 6,500 2,855 Climbing Indianapolis Center
Thu 09:02:13 AM 40.0308 -83.2117 277° West 253 291 9,300 2,129 Climbing Indianapolis Center
Thu 09:03:15 AM 40.0372 -83.3061 275° West 256 295 10,900 1,935 Climbing Indianapolis Center
Thu 09:04:17 AM 40.0094 -83.4061 250° West 288 331 13,300 2,371 Climbing Indianapolis Center
Thu 09:05:19 AM 39.9325 -83.5078 225° Southwest 325 374 15,800 2,177 Climbing Indianapolis Center
Thu 09:06:21 AM 39.8675 -83.5944 226° Southwest 342 394 17,800 1,839 Climbing Indianapolis Center
Thu 09:07:23 AM 39.8000 -83.6831 225° Southwest 349 402 19,600 1,548 Climbing Indianapolis Center
Thu 09:08:25 AM 39.7283 -83.7778 225° Southwest 361 415 21,000 1,645 Climbing Indianapolis Center
Thu 09:09:27 AM 39.6394 -83.8947 225° Southwest 375 432 23,000 1,645 Climbing Indianapolis Center
Thu 09:10:29 AM 39.5647 -83.9931 225° Southwest 378 435 24,400 1,210 Climbing Indianapolis Center
Thu 09:11:31 AM 39.4878 -84.0925 225° Southwest 386 444 25,500 1,065 Climbing Indianapolis Center
Thu 09:12:33 AM 39.4097 -84.1958 226° Southwest 396 456 26,600 1,694 Climbing Indianapolis Center
Thu 09:13:35 AM 39.3308 -84.2992 225° Southwest 404 465 29,000 2,081 Climbing Indianapolis Center
Thu 09:14:37 AM 39.2439 -84.4111 225° Southwest 375 432 30,900 1,258 Climbing Indianapolis Center
Thu 09:15:39 AM 39.1697 -84.5044 224° Southwest 372 428 31,600 532 Climbing Indianapolis Center
Thu 09:16:41 AM 39.0950 -84.6047 226° Southwest 380 437 32,000 968 Climbing Indianapolis Center
Thu 09:17:43 AM 39.0183 -84.7022 225° Southwest 391 450 33,600 1,210 Climbing Indianapolis Center
Thu 09:18:45 AM 38.9769 -84.8217 246° West 371 427 34,500 677 Climbing Indianapolis Center
Thu 09:19:47 AM 38.9339 -84.9506 247° West 368 423 35,000 435 Climbing Indianapolis Center
Thu 09:20:49 AM 38.8906 -85.0733 246° West 373 429 35,400 288 Climbing Indianapolis Center
Thu 09:21:52 AM 38.8469 -85.2008 246° West 385 443 35,600 144 Climbing Indianapolis Center
Thu 09:22:54 AM 38.7928 -85.3597 246° West 400 460 35,700 145 Climbing Indianapolis Center
Thu 09:23:56 AM 38.7444 -85.4975 246° West 417 480 35,900 145 Climbing Indianapolis Center
Thu 09:24:58 AM 38.6964 -85.6353 246° West 420 483 36,000 48 Climbing Indianapolis Center
Thu 09:26:00 AM 38.6500 -85.7739 247° West 420 483 36,000  Level Indianapolis Center
Thu 09:27:02 AM 38.6006 -85.9125 246° West 423 487 36,000  Level Indianapolis Center
Thu 09:28:04 AM 38.5883 -86.0556 264° West 413 475 36,000  Level Indianapolis Center
Thu 09:29:06 AM 38.5875 -86.2000 270° West 410 472 36,000  Level Indianapolis Center
Thu 09:30:09 AM 38.5856 -86.3750 269° West 410 472 36,000  Level Indianapolis Center
Thu 09:31:11 AM 38.5856 -86.5219 270° West 410 472 36,000  Level Indianapolis Center
Thu 09:32:13 AM 38.5844 -86.6692 269° West 412 474 36,000  Level Indianapolis Center
Thu 09:33:15 AM 38.5833 -86.8153 269° West 412 474 36,000  Level Indianapolis Center
Thu 09:34:17 AM 38.5822 -86.9611 269° West 412 474 36,000  Level Indianapolis Center
Thu 09:35:19 AM 38.5806 -87.1361 269° West 412 474 36,000  Level Indianapolis Center
Thu 09:36:21 AM 38.5789 -87.2811 269° West 412 474 36,000  Level Indianapolis Center
Thu 09:37:23 AM 38.5769 -87.4269 269° West 412 474 36,000  Level Indianapolis Center
Thu 09:38:25 AM 38.5744 -87.5739 269° West 413 475 36,000  Level Indianapolis Center
Thu 09:39:28 AM 38.5719 -87.7211 269° West 413 475 36,000  Level Indianapolis Center
Thu 09:40:30 AM 38.5694 -87.8689 269° West 413 475 36,000  Level Indianapolis Center
Thu 09:41:32 AM 38.5667 -88.0458 269° West 413 475 36,000  Level Indianapolis Center
Thu 09:42:08 AM 38.5653 -88.1344 269° West 414 476 36,000  Level Kansas City Center
Thu 09:43:10 AM 38.5622 -88.2842 269° West 414 476 36,000  Level Kansas City Center
Thu 09:44:12 AM 38.5597 -88.4339 269° West 418 481 36,000  Level Kansas City Center
Thu 09:45:14 AM 38.5558 -88.5836 268° West 418 481 36,000  Level Kansas City Center
Thu 09:46:16 AM 38.5511 -88.7519 268° West 423 487 36,000  Level Kansas City Center
Thu 09:47:18 AM 38.5617 -88.9097 275° West 420 483 36,000  Level Kansas City Center
Thu 09:48:20 AM 38.5750 -89.0603 277° West 419 482 36,000  Level Kansas City Center
Thu 09:49:22 AM 38.5858 -89.2125 275° West 421 484 36,000  Level Kansas City Center
Thu 09:50:25 AM 38.5992 -89.3653 276° West 435 501 36,000  Level Kansas City Center
Thu 09:51:27 AM 38.6106 -89.5233 275° West 441 507 36,000  Level Kansas City Center
Thu 09:52:29 AM 38.6211 -89.6894 275° West 443 510 36,000  Level Kansas City Center
Thu 09:53:31 AM 38.6314 -89.8378 275° West 429 494 36,000  Level Kansas City Center
Thu 09:54:33 AM 38.6411 -89.9828 275° West 417 480 36,000  Level Kansas City Center
Thu 09:55:35 AM 38.6547 -90.1453 276° West 419 482 36,000  Level Kansas City Center
Thu 09:56:37 AM 38.6650 -90.2936 275° West 419 482 36,000  Level Kansas City Center
Thu 09:57:39 AM 38.6731 -90.4553 274° West 413 475 36,000  Level Kansas City Center
Thu 09:58:41 AM 38.6828 -90.6031 275° West 413 475 36,000  Level Kansas City Center
Thu 09:59:44 AM 38.6917 -90.7647 274° West 435 501 36,000  Level Kansas City Center
Thu 10:00:46 AM 38.7017 -90.9147 275° West 433 498 36,000  Level Kansas City Center
Thu 10:01:48 AM 38.7111 -91.0644 275° West 430 495 36,000  Level Kansas City Center
Thu 10:02:50 AM 38.7206 -91.2153 275° West 427 491 36,000  Level Kansas City Center
Thu 10:03:52 AM 38.7311 -91.3978 274° West 428 493 36,000  Level Kansas City Center
Thu 10:04:54 AM 38.7386 -91.5492 274° West 428 493 36,000  Level Kansas City Center
Thu 10:05:56 AM 38.7483 -91.7011 275° West 428 493 36,000  Level Kansas City Center
Thu 10:06:58 AM 38.7561 -91.8639 274° West 429 494 36,000  Level Kansas City Center
Thu 10:08:00 AM 38.7650 -92.0156 274° West 429 494 36,000  Level Kansas City Center
Thu 10:09:03 AM 38.7714 -92.1653 273° West 427 491 36,000  Level Kansas City Center
Thu 10:10:05 AM 38.7800 -92.3450 274° West 425 489 36,000  Level Kansas City Center
Thu 10:11:07 AM 38.7867 -92.4919 273° West 420 483 36,000  Level Kansas City Center
Thu 10:12:09 AM 38.7931 -92.6414 273° West 420 483 36,000  Level Kansas City Center
Thu 10:13:11 AM 38.7994 -92.7917 273° West 420 483 36,000  Level Kansas City Center
Thu 10:14:13 AM 38.8061 -92.9419 273° West 421 484 36,000  Level Kansas City Center
Thu 10:15:15 AM 38.8119 -93.0917 273° West 421 484 36,000  Level Kansas City Center
Thu 10:16:17 AM 38.8194 -93.2731 273° West 422 486 36,000  Level Kansas City Center
Thu 10:17:19 AM 38.8253 -93.4256 273° West 424 488 36,000  Level Kansas City Center
Thu 10:18:21 AM 38.8311 -93.5761 273° West 425 489 36,000  Level Kansas City Center
Thu 10:19:24 AM 38.8372 -93.7289 273° West 426 490 36,000  Level Kansas City Center
Thu 10:20:26 AM 38.8431 -93.9006 273° West 427 491 36,000  Level Kansas City Center
Thu 10:21:28 AM 38.8483 -94.0514 273° West 426 490 36,000  Level Kansas City Center
Thu 10:22:30 AM 38.8536 -94.2136 272° West 425 489 36,000  Level Kansas City Center
Thu 10:23:32 AM 38.8583 -94.3669 272° West 426 490 36,000  Level Kansas City Center
Thu 10:24:34 AM 38.8622 -94.5231 272° West 436 502 36,000  Level Kansas City Center
Thu 10:25:36 AM 38.8675 -94.6878 272° West 432 497 36,000  Level Kansas City Center
Thu 10:26:38 AM 38.8706 -94.8419 272° West 430 495 36,000  Level Kansas City Center
Thu 10:27:40 AM 38.8753 -95.0072 272° West 431 496 36,000  Level Kansas City Center
Thu 10:28:42 AM 38.8803 -95.1625 272° West 431 496 36,000  Level Kansas City Center
Thu 10:29:45 AM 38.8833 -95.3139 272° West 427 491 36,000  Level Kansas City Center
Thu 10:30:47 AM 38.8872 -95.4797 272° West 429 494 36,000  Level Kansas City Center
Thu 10:31:49 AM 38.8903 -95.6333 272° West 431 496 36,000  Level Kansas City Center
Thu 10:32:51 AM 38.8933 -95.7997 271° West 432 497 36,000  Level Kansas City Center
Thu 10:33:53 AM 38.8964 -95.9600 271° West 432 497 36,000  Level Kansas City Center
Thu 10:34:55 AM 38.8986 -96.1200 271° West 432 497 36,000  Level Kansas City Center
Thu 10:35:57 AM 38.9003 -96.2692 271° West 431 496 36,000  Level Kansas City Center
Thu 10:36:59 AM 38.9022 -96.4214 271° West 430 495 36,000  Level Kansas City Center
Thu 10:38:01 AM 38.9039 -96.5733 271° West 429 494 36,000  Level Kansas City Center
Thu 10:39:04 AM 38.9053 -96.7278 271° West 430 495 36,000  Level Kansas City Center
Thu 10:40:06 AM 38.9069 -96.8814 271° West 431 496 36,000  Level Kansas City Center
Thu 10:41:08 AM 38.9089 -97.0647 271° West 431 496 36,000  Level Kansas City Center
Thu 10:42:10 AM 38.9103 -97.2158 271° West 430 495 36,000  Level Kansas City Center
Thu 10:43:12 AM 38.9103 -97.3656 270° West 425 489 36,000  Level Kansas City Center
Thu 10:44:14 AM 38.9111 -97.5175 270° West 425 489 36,000  Level Kansas City Center
Thu 10:45:16 AM 38.9122 -97.6678 271° West 425 489 36,000  Level Kansas City Center
Thu 10:46:18 AM 38.9119 -97.8478 270° West 425 489 36,000  Level Kansas City Center
Thu 10:47:20 AM 38.9119 -97.9969 270° West 424 488 36,000  Level Kansas City Center
Thu 10:48:23 AM 38.9125 -98.1458 270° West 423 487 36,000  Level Kansas City Center
Thu 10:49:25 AM 38.9119 -98.2936 270° West 420 483 36,000  Level Kansas City Center
Thu 10:50:27 AM 38.9111 -98.4419 270° West 419 482 36,000  Level Kansas City Center
Thu 10:51:29 AM 38.9108 -98.6186 270° West 419 482 36,000  Level Kansas City Center
Thu 10:52:31 AM 38.9100 -98.7653 270° West 416 479 36,000  Level Kansas City Center
Thu 10:53:33 AM 38.9094 -98.9125 270° West 416 479 36,000  Level Kansas City Center
Thu 10:54:35 AM 38.9072 -99.0578 269° West 412 474 36,000  Level Kansas City Center
Thu 10:55:37 AM 38.9056 -99.2025 269° West 411 473 36,000  Level Kansas City Center
Thu 10:56:39 AM 38.9047 -99.3475 270° West 410 472 36,000  Level Kansas City Center
Thu 10:57:41 AM 38.9019 -99.5208 269° West 410 472 36,000  Level Kansas City Center
Thu 10:58:28 AM 38.9003 -99.6356 269° West 406 467 36,000  Level Denver Center
Thu 10:59:31 AM 38.8989 -99.7744 269° West 405 466 36,000  Level Denver Center
Thu 11:00:33 AM 38.8956 -99.9381 269° West 411 473 36,000  Level Denver Center
Thu 11:01:35 AM 38.8936 -100.0847 269° West 424 488 36,000  Level Denver Center
Thu 11:02:37 AM 38.8906 -100.2539 269° West 426 490 36,000  Level Denver Center
Thu 11:03:39 AM 38.8875 -100.3947 268° West 420 483 36,000  Level Denver Center
Thu 11:04:41 AM 38.8836 -100.5650 268° West 422 486 36,000  Level Denver Center
Thu 11:05:43 AM 38.8808 -100.7092 269° West 423 487 36,000  Level Denver Center
Thu 11:06:45 AM 38.8761 -100.8753 268° West 423 487 36,000  Level Denver Center
Thu 11:07:47 AM 38.8719 -101.0200 268° West 423 487 36,000  Level Denver Center
Thu 11:08:50 AM 38.8675 -101.1861 268° West 423 487 36,000  Level Denver Center
Thu 11:09:52 AM 38.8642 -101.3283 268° West 421 484 36,000 -532 Level Denver Center
Thu 11:10:54 AM 38.8592 -101.4950 268° West 420 483 34,900 -968 Descending Denver Center
Thu 11:11:56 AM 38.8547 -101.6336 268° West 411 473 34,000 -435 Descending Denver Center
Thu 11:12:58 AM 38.8494 -101.8022 268° West 423 487 34,000  Level Denver Center
Thu 11:14:00 AM 38.8481 -101.9481 269° West 425 489 34,000  Level Denver Center
Thu 11:15:02 AM 38.8456 -102.1158 269° West 425 489 34,000 -774 Level Denver Center
Thu 11:16:04 AM 38.8436 -102.2594 269° West 424 488 32,400 -1,452 Descending Denver Center
Thu 11:17:06 AM 38.8414 -102.4294 269° West 424 488 31,000 -677 Descending Denver Center
Thu 11:18:08 AM 38.8378 -102.5717 268° West 423 487 31,000  Level Denver Center
Thu 11:19:11 AM 38.8592 -102.7369 279° West 432 497 31,000  Level Denver Center
Thu 11:20:13 AM 38.9233 -102.8764 301° West 436 502 31,000  Level Denver Center
Thu 11:21:15 AM 38.9836 -103.0119 300° West 437 503 31,000  Level Denver Center
Thu 11:22:17 AM 39.0433 -103.1469 300° West 437 503 31,000  Level Denver Center
Thu 11:23:19 AM 39.1039 -103.2825 300° West 437 503 31,000 -145 Level Denver Center
Thu 11:24:21 AM 39.1622 -103.4178 299° West 435 501 30,700 -1,210 Descending Denver Center
Thu 11:25:23 AM 39.2214 -103.5503 300° West 431 496 28,500 -2,323 Descending Denver Center
Thu 11:26:25 AM 39.2892 -103.7072 299° West 424 488 25,900 -2,274 Descending Denver Center
Thu 11:27:27 AM 39.3467 -103.8289 301° West 403 464 23,800 -2,016 Descending Denver Center
Thu 11:28:30 AM 39.4019 -103.9467 301° West 386 444 21,700 -2,226 Descending Denver Center
Thu 11:29:31 AM 39.4714 -104.0631 308° West 368 423 19,200 -2,032 Descending Denver Center
Thu 11:30:34 AM 39.5297 -104.1597 308° West 343 395 17,500 -1,056 Descending Denver Center
Thu 11:31:36 AM 39.5881 -104.2572 308° West 318 366 17,000 -290 Descending Denver Center
Thu 11:32:38 AM 39.6417 -104.3475 308° West 316 364 16,900 -871 Descending Denver Center
Thu 11:33:40 AM 39.6992 -104.4433 308° West 314 361 15,200 -1,645 Descending Denver Center
Thu 11:34:42 AM 39.7606 -104.5186 317° Northwest 321 369 13,500 -1,694 Descending Denver Center
Thu 11:35:44 AM 39.8569 -104.5211 359° North 324 373 11,700 -1,210 Descending Denver Center
Thu 11:36:46 AM 39.9372 -104.5214 360° North 290 334 11,000 -774 Descending Denver Center
Thu 11:37:48 AM 40.0100 -104.5192 North 247 284 10,100 -1,296 Descending Denver Center
Thu 11:38:51 AM 40.0725 -104.5361 348° North 243 280 8,300 -1,488 Descending Denver Center
Thu 11:39:53 AM 40.0731 -104.6261 270° West 234 269 7,000 -581 Descending Denver Center
Thu 11:40:55 AM 40.0222 -104.6681 212° Southwest 213 245 7,100 -145 Climbing Denver Center
Thu 11:41:57 AM 39.9697 -104.6867 195° South 183 211 6,700 -581 Descending Denver Center
Thu 11:42:59 AM 39.9247 -104.6864 180° South 167 192 5,900 -629 Descending Denver Center
Thu 11:44:01 AM 39.8819 -104.6869 181° South 159 183 5,400 -484 Descending Denver Center
Thu 11:46:00 AM 39.8617 -104.6732 180° South  Level Estimated

Login

Don't have an account? Register now (free) for customized features, flight alerts, and more!